PHX weather

Phoenix Sky Harbor International Airport
Phoenix, Arizona, United States

Public forecast

Using degrees Fahrenheit for public forecast. Weather courtesy of forecast.io.

Current aviation weather report (METAR) for Phoenix Sky Harbor International Airport

Retrieved 2019/10/13 18:51 UTC (54 minutes ago):

KPHX 131851Z 14004KT 10SM CLR 29/00 A2988 RMK AO2 SLP104 T02890000

Aviation forecast (TAF) for Phoenix Sky Harbor International Airport

Retrieved 2019/10/13 18:30 UTC (1 hour ago):

TAF KPHX 131727Z 1318/1424 13006KT P6SM SKC FM131900 18005KT P6SM SKC FM132100 25005KT P6SM SKC FM140600 11005KT P6SM SKC FM142100 24005KT P6SM SCT090